Terminal Aerodrome Forecast
Issued by NWS Denver/Boulder, CO

Current Version | Previous Version | Text Only | Print | Product List | Glossary On
Versions: 1 2 3 4 5 6 7 8 9 10 11 12 13 14 15 16 17 18 19 20 21 22 23 24 25 26 27 28 29 30 31 32 33 34 35 36
000
FTUS45 KBOU 221314 AAA
TAFDEN
TAF AMD
KDEN 221314Z 2213/2318 12009KT P6SM SCT025 SCT220
     FM221700 14012KT P6SM FEW070 SCT220
     FM222000 12013G21KT P6SM SCT070 SCT150 PROB30 2222/2302
      VRB20G35KT -TSRA BKN060CB
     FM230200 15013G20KT P6SM SCT070 BKN120
     FM230500 19013KT P6SM SCT070 BKN120=

USA.gov is the U.S. government's official web portal to all federal, state and local government web resources and services.